createdAt,value
2018-09-13T00:00:03.017Z,21.78
2018-09-13T00:01:02.884Z,21.76
2018-09-13T00:02:02.819Z,21.77
2018-09-13T00:03:02.499Z,21.77
2018-09-13T00:04:02.943Z,21.76
2018-09-13T00:05:02.478Z,21.77
2018-09-13T00:06:02.669Z,21.76
2018-09-13T00:07:02.856Z,21.76
2018-09-13T00:08:02.832Z,21.78
2018-09-13T00:09:02.848Z,21.76
2018-09-13T00:10:02.978Z,21.77
2018-09-13T00:11:02.823Z,21.74
2018-09-13T00:12:02.688Z,21.77
2018-09-13T00:13:02.589Z,21.76
2018-09-13T00:14:03.062Z,21.76
2018-09-13T00:15:02.601Z,21.76
2018-09-13T00:16:02.846Z,21.74
2018-09-13T00:17:02.577Z,21.76
2018-09-13T00:18:02.833Z,21.77
2018-09-13T00:19:03.181Z,21.77
2018-09-13T00:20:02.628Z,21.8
2018-09-13T00:21:02.888Z,21.74
2018-09-13T00:22:03.010Z,21.76
2018-09-13T00:23:02.983Z,21.76
2018-09-13T00:24:02.846Z,21.76
2018-09-13T00:25:02.578Z,21.74
2018-09-13T00:26:02.685Z,21.76
2018-09-13T00:27:02.546Z,21.76
2018-09-13T00:28:03.086Z,21.76
2018-09-13T00:29:02.707Z,21.76
2018-09-13T00:30:02.897Z,21.74
2018-09-13T00:31:02.712Z,21.76
2018-09-13T00:32:02.687Z,21.76
2018-09-13T00:33:02.661Z,21.77
2018-09-13T00:34:02.898Z,21.77
2018-09-13T00:35:02.582Z,21.76
2018-09-13T00:36:02.653Z,21.73
2018-09-13T00:37:02.912Z,21.76
2018-09-13T00:38:02.849Z,21.77
2018-09-13T00:39:02.839Z,21.74
2018-09-13T00:40:02.582Z,21.77
2018-09-13T00:41:02.568Z,21.77
2018-09-13T00:42:02.710Z,21.73
2018-09-13T00:43:02.916Z,21.74
2018-09-13T00:44:02.739Z,21.76
2018-09-13T00:45:03.123Z,21.77
2018-09-13T00:46:02.882Z,21.77
2018-09-13T00:47:02.506Z,21.76
2018-09-13T00:48:02.656Z,21.73
2018-09-13T00:49:02.846Z,21.74
2018-09-13T00:50:02.637Z,21.76
2018-09-13T00:51:02.882Z,21.74
2018-09-13T00:52:02.744Z,21.74
2018-09-13T00:53:02.800Z,21.76
2018-09-13T00:54:02.626Z,21.77
2018-09-13T00:55:02.667Z,21.74
2018-09-13T00:56:02.749Z,21.74
2018-09-13T00:57:02.940Z,21.76
2018-09-13T00:58:02.690Z,21.76
2018-09-13T00:59:03.547Z,21.76
2018-09-13T01:00:02.851Z,21.76
2018-09-13T01:01:02.501Z,21.74
2018-09-13T01:02:02.591Z,21.73
2018-09-13T01:03:02.507Z,21.76
2018-09-13T01:04:02.521Z,21.73
2018-09-13T01:05:02.677Z,21.76
2018-09-13T01:06:02.681Z,21.76
2018-09-13T01:07:02.592Z,21.73
2018-09-13T01:08:02.657Z,21.74
2018-09-13T01:09:02.860Z,21.76
2018-09-13T01:10:02.564Z,21.71
2018-09-13T01:11:02.582Z,21.76
2018-09-13T01:12:02.719Z,21.74
2018-09-13T01:13:02.768Z,21.73
2018-09-13T01:14:02.456Z,21.74
2018-09-13T01:15:02.700Z,21.74
2018-09-13T01:16:02.711Z,21.74
2018-09-13T01:17:03.453Z,21.76
2018-09-13T01:18:02.639Z,21.73
2018-09-13T01:19:02.624Z,21.73
2018-09-13T01:20:02.856Z,21.74
2018-09-13T01:21:02.647Z,21.73
2018-09-13T01:22:02.601Z,21.74
2018-09-13T01:23:02.829Z,21.76
2018-09-13T01:24:02.787Z,21.74
2018-09-13T01:25:02.540Z,21.74
2018-09-13T01:26:02.962Z,21.76
2018-09-13T01:27:02.530Z,21.73
2018-09-13T01:28:02.626Z,21.74
2018-09-13T01:29:02.768Z,21.74
2018-09-13T01:30:02.843Z,21.73
2018-09-13T01:31:02.594Z,21.74
2018-09-13T01:32:02.629Z,21.76
2018-09-13T01:33:02.750Z,21.74
2018-09-13T01:34:02.664Z,21.74
2018-09-13T01:35:02.829Z,21.73
2018-09-13T01:36:02.577Z,21.74
2018-09-13T01:37:02.611Z,21.76
2018-09-13T01:38:02.841Z,21.73
2018-09-13T01:39:03.089Z,21.74
2018-09-13T01:40:02.936Z,21.73
2018-09-13T01:41:02.951Z,21.74
2018-09-13T01:42:02.862Z,21.74
2018-09-13T01:43:02.735Z,21.74
2018-09-13T01:44:02.593Z,21.71
2018-09-13T01:45:02.904Z,21.73
2018-09-13T01:46:02.786Z,21.73
2018-09-13T01:47:02.818Z,21.71
2018-09-13T01:48:02.945Z,21.73
2018-09-13T01:49:02.424Z,21.71
2018-09-13T01:50:02.888Z,21.74
2018-09-13T01:51:02.634Z,21.74
2018-09-13T01:52:02.570Z,21.73
2018-09-13T01:53:02.611Z,21.76
2018-09-13T01:54:02.524Z,21.73
2018-09-13T01:55:02.861Z,21.7
2018-09-13T01:56:02.591Z,21.76
2018-09-13T01:57:02.877Z,21.73
2018-09-13T01:58:02.885Z,21.73
2018-09-13T01:59:02.828Z,21.71
2018-09-13T02:00:02.531Z,21.71
2018-09-13T02:01:02.983Z,21.73
2018-09-13T02:02:02.942Z,21.73
2018-09-13T02:03:03.004Z,21.73
2018-09-13T02:04:02.804Z,21.74
2018-09-13T02:05:02.703Z,21.71
2018-09-13T02:06:02.586Z,21.73
2018-09-13T02:07:02.909Z,21.71
2018-09-13T02:08:02.461Z,21.71
2018-09-13T02:09:02.856Z,21.71
2018-09-13T02:10:02.855Z,21.71
2018-09-13T02:11:02.647Z,21.73
2018-09-13T02:12:02.593Z,21.73
2018-09-13T02:13:02.877Z,21.71
2018-09-13T02:14:02.545Z,21.74
2018-09-13T02:15:02.859Z,21.73
2018-09-13T02:16:02.894Z,21.73
2018-09-13T02:17:02.788Z,21.73
2018-09-13T02:18:02.896Z,21.7
2018-09-13T02:19:02.628Z,21.7
2018-09-13T02:20:02.583Z,21.73
2018-09-13T02:21:02.586Z,21.71
2018-09-13T02:22:02.531Z,21.7
2018-09-13T02:23:02.726Z,21.71
2018-09-13T02:24:02.827Z,21.71
2018-09-13T02:25:02.709Z,21.7
2018-09-13T02:26:02.962Z,21.73
2018-09-13T02:27:02.712Z,21.71
2018-09-13T02:28:02.491Z,21.71
2018-09-13T02:29:02.674Z,21.7
2018-09-13T02:30:02.559Z,21.74
2018-09-13T02:31:02.656Z,21.71
2018-09-13T02:32:02.767Z,21.71
2018-09-13T02:33:02.566Z,21.73
2018-09-13T02:34:02.644Z,21.7
2018-09-13T02:35:02.953Z,21.71
2018-09-13T02:36:02.820Z,21.71
2018-09-13T02:37:02.878Z,21.71
2018-09-13T02:38:02.772Z,21.74
2018-09-13T02:39:02.750Z,21.71
2018-09-13T02:40:02.634Z,21.71
2018-09-13T02:41:02.704Z,21.73
2018-09-13T02:42:02.739Z,21.7
2018-09-13T02:43:02.563Z,21.7
2018-09-13T02:44:02.781Z,21.7
2018-09-13T02:45:02.819Z,21.71
2018-09-13T02:46:02.637Z,21.71
2018-09-13T02:47:02.670Z,21.7
2018-09-13T02:48:03.116Z,21.73
2018-09-13T02:49:03.249Z,21.68
2018-09-13T02:50:02.909Z,21.71
2018-09-13T02:51:02.734Z,21.71
2018-09-13T02:52:02.951Z,21.71
2018-09-13T02:53:02.672Z,21.7
2018-09-13T02:54:02.574Z,21.7
2018-09-13T02:55:02.550Z,21.7
2018-09-13T02:56:02.658Z,21.7
2018-09-13T02:57:02.886Z,21.7
2018-09-13T02:58:02.814Z,21.71
2018-09-13T02:59:02.864Z,21.7
2018-09-13T03:00:02.775Z,21.7
2018-09-13T03:01:02.852Z,21.7
2018-09-13T03:02:02.920Z,21.68
2018-09-13T03:03:02.568Z,21.71
2018-09-13T03:04:02.649Z,21.71
2018-09-13T03:05:02.944Z,21.7
2018-09-13T03:06:02.857Z,21.7
2018-09-13T03:07:02.576Z,21.71
2018-09-13T03:08:02.617Z,21.7
2018-09-13T03:09:03.035Z,21.71
2018-09-13T03:10:02.822Z,21.71
2018-09-13T03:11:02.820Z,21.7
2018-09-13T03:12:02.800Z,21.71
2018-09-13T03:13:02.764Z,21.7
2018-09-13T03:14:02.533Z,21.71
2018-09-13T03:15:02.633Z,21.7
2018-09-13T03:16:02.824Z,21.68
2018-09-13T03:17:02.780Z,21.7
2018-09-13T03:18:02.875Z,21.68
2018-09-13T03:19:02.874Z,21.7
2018-09-13T03:20:02.713Z,21.7
2018-09-13T03:21:02.817Z,21.68
2018-09-13T03:22:02.745Z,21.71
2018-09-13T03:23:02.700Z,21.7
2018-09-13T03:24:02.864Z,21.7
2018-09-13T03:25:02.858Z,21.7
2018-09-13T03:26:02.591Z,21.7
2018-09-13T03:27:02.844Z,21.68
2018-09-13T03:28:02.694Z,21.73
2018-09-13T03:29:02.802Z,21.7
2018-09-13T03:30:02.655Z,21.71
2018-09-13T03:31:03.038Z,21.68
2018-09-13T03:32:02.738Z,21.71
2018-09-13T03:33:02.544Z,21.71
2018-09-13T03:34:02.709Z,21.7
2018-09-13T03:35:02.835Z,21.7
2018-09-13T03:36:03.061Z,21.68
2018-09-13T03:37:02.901Z,21.68
2018-09-13T03:38:02.526Z,21.71
2018-09-13T03:39:02.727Z,21.7
2018-09-13T03:40:03.091Z,21.67
2018-09-13T03:41:02.868Z,21.7
2018-09-13T03:42:03.811Z,21.7
2018-09-13T03:43:02.602Z,21.7
2018-09-13T03:44:02.516Z,21.68
2018-09-13T03:45:02.726Z,21.71
2018-09-13T03:46:02.618Z,21.7
2018-09-13T03:47:02.545Z,21.68
2018-09-13T03:48:02.588Z,21.7
2018-09-13T03:49:02.473Z,21.68
2018-09-13T03:50:02.549Z,21.7
2018-09-13T03:51:02.649Z,21.68
2018-09-13T03:52:02.480Z,21.67
2018-09-13T03:53:02.501Z,21.7
2018-09-13T03:54:02.477Z,21.68
2018-09-13T03:55:02.477Z,21.68
2018-09-13T03:56:02.604Z,21.67
2018-09-13T03:57:02.506Z,21.7
2018-09-13T03:58:02.848Z,21.68
2018-09-13T03:59:02.524Z,21.7
2018-09-13T04:00:02.547Z,21.68
2018-09-13T04:01:02.679Z,21.71
2018-09-13T04:02:02.784Z,21.68
2018-09-13T04:03:02.710Z,21.68
2018-09-13T04:04:03.105Z,21.67
2018-09-13T04:05:02.718Z,21.68
2018-09-13T04:06:02.701Z,21.68
2018-09-13T04:07:02.768Z,21.7
2018-09-13T04:08:03.005Z,21.7
2018-09-13T04:09:03.240Z,21.68
2018-09-13T04:10:02.885Z,21.68
2018-09-13T04:11:02.616Z,21.68
2018-09-13T04:12:02.641Z,21.71
2018-09-13T04:13:02.688Z,21.67
2018-09-13T04:14:02.982Z,21.68
2018-09-13T04:15:02.753Z,21.67
2018-09-13T04:16:02.558Z,21.68
2018-09-13T04:17:02.434Z,21.71
2018-09-13T04:18:02.590Z,21.7
2018-09-13T04:19:02.972Z,21.68
2018-09-13T04:20:02.708Z,21.67
2018-09-13T04:21:02.709Z,21.68
2018-09-13T04:22:02.837Z,21.67
2018-09-13T04:23:02.824Z,21.7
2018-09-13T04:24:02.588Z,21.68
2018-09-13T04:25:02.858Z,21.68
2018-09-13T04:26:02.631Z,21.67
2018-09-13T04:27:02.612Z,21.68
2018-09-13T04:28:03.014Z,21.68
2018-09-13T04:29:02.637Z,21.7
2018-09-13T04:30:02.667Z,21.67
2018-09-13T04:31:02.818Z,21.67
2018-09-13T04:32:02.793Z,21.68
2018-09-13T04:33:02.939Z,21.67
2018-09-13T04:34:02.912Z,21.68
2018-09-13T04:35:02.750Z,21.67
2018-09-13T04:36:03.359Z,21.68
2018-09-13T04:37:02.833Z,21.67
2018-09-13T04:38:02.422Z,21.7
2018-09-13T04:39:02.640Z,21.7
2018-09-13T04:40:02.927Z,21.7
2018-09-13T04:41:02.847Z,21.7
2018-09-13T04:42:02.841Z,21.67
2018-09-13T04:43:02.776Z,21.67
2018-09-13T04:44:02.481Z,21.68
2018-09-13T04:45:03.091Z,21.67
2018-09-13T04:46:02.636Z,21.68
2018-09-13T04:47:02.755Z,21.66
2018-09-13T04:48:02.414Z,21.67
2018-09-13T04:49:02.809Z,21.68
2018-09-13T04:50:02.701Z,21.68
2018-09-13T04:51:02.720Z,21.67
2018-09-13T04:52:02.980Z,21.67
2018-09-13T04:53:02.780Z,21.67
2018-09-13T04:54:03.161Z,21.67
2018-09-13T04:55:02.803Z,21.68
2018-09-13T04:56:02.539Z,21.67
2018-09-13T04:57:02.868Z,21.7
2018-09-13T04:58:02.658Z,21.67
2018-09-13T04:59:02.758Z,21.68
2018-09-13T05:00:02.829Z,21.68
2018-09-13T05:01:02.593Z,21.67
2018-09-13T05:02:02.493Z,21.7
2018-09-13T05:03:02.736Z,21.67
2018-09-13T05:04:02.784Z,21.68
2018-09-13T05:05:02.789Z,21.66
2018-09-13T05:06:02.813Z,21.67
2018-09-13T05:07:02.482Z,21.66
2018-09-13T05:08:02.791Z,21.68
2018-09-13T05:09:02.599Z,21.67
2018-09-13T05:10:03.283Z,21.67
2018-09-13T05:11:02.498Z,21.67
2018-09-13T05:12:02.735Z,21.64
2018-09-13T05:13:02.890Z,21.67
2018-09-13T05:14:02.800Z,21.64
2018-09-13T05:15:02.921Z,21.68
2018-09-13T05:16:02.922Z,21.66
2018-09-13T05:17:02.695Z,21.64
2018-09-13T05:18:02.845Z,21.67
2018-09-13T05:19:02.754Z,21.66
2018-09-13T05:20:02.820Z,21.67
2018-09-13T05:21:02.540Z,21.68
2018-09-13T05:22:02.743Z,21.68
2018-09-13T05:23:02.466Z,21.68
2018-09-13T05:24:02.644Z,21.66
2018-09-13T05:25:02.788Z,21.66
2018-09-13T05:26:02.827Z,21.67
2018-09-13T05:27:03.097Z,21.67
2018-09-13T05:28:02.798Z,21.67
2018-09-13T05:29:02.810Z,21.67
2018-09-13T05:30:02.574Z,21.64
2018-09-13T05:31:02.832Z,21.68
2018-09-13T05:32:02.769Z,21.68
2018-09-13T05:33:02.582Z,21.66
2018-09-13T05:34:03.004Z,21.66
2018-09-13T05:35:02.887Z,21.67
2018-09-13T05:36:02.800Z,21.66
2018-09-13T05:37:02.934Z,21.66
2018-09-13T05:38:02.456Z,21.67
2018-09-13T05:39:03.154Z,21.68
2018-09-13T05:40:02.875Z,21.66
2018-09-13T05:41:02.523Z,21.64
2018-09-13T05:42:02.734Z,21.67
2018-09-13T05:43:02.807Z,21.64
2018-09-13T05:44:02.852Z,21.66
2018-09-13T05:45:02.669Z,21.68
2018-09-13T05:46:02.793Z,21.67
2018-09-13T05:47:02.875Z,21.67
2018-09-13T05:48:02.648Z,21.67
2018-09-13T05:49:02.810Z,21.67
2018-09-13T05:50:02.744Z,21.67
2018-09-13T05:51:03.077Z,21.66
2018-09-13T05:52:02.566Z,21.66
2018-09-13T05:53:02.634Z,21.66
2018-09-13T05:54:02.523Z,21.67
2018-09-13T05:55:02.593Z,21.66
2018-09-13T05:56:02.459Z,21.67
2018-09-13T05:57:02.707Z,21.66
2018-09-13T05:58:02.584Z,21.66
2018-09-13T05:59:02.667Z,21.66
2018-09-13T06:00:02.871Z,21.67
2018-09-13T06:01:03.224Z,21.64
2018-09-13T06:02:02.746Z,21.66
2018-09-13T06:03:02.448Z,21.66
2018-09-13T06:04:02.581Z,21.66
2018-09-13T06:05:02.537Z,21.67
2018-09-13T06:06:02.695Z,21.66
2018-09-13T06:07:02.552Z,21.64
2018-09-13T06:08:03.021Z,21.67
2018-09-13T06:09:02.492Z,21.67
2018-09-13T06:10:02.689Z,21.67
2018-09-13T06:11:02.502Z,21.66
2018-09-13T06:12:02.408Z,21.64
2018-09-13T06:13:02.785Z,21.67
2018-09-13T06:14:02.959Z,21.66
2018-09-13T06:15:03.073Z,21.67
2018-09-13T06:16:02.560Z,21.66
2018-09-13T06:17:02.548Z,21.64
2018-09-13T06:18:02.806Z,21.7
2018-09-13T06:19:02.866Z,21.66
2018-09-13T06:20:02.514Z,21.66
2018-09-13T06:21:02.742Z,21.67
2018-09-13T06:22:02.482Z,21.67
2018-09-13T06:23:02.500Z,21.66
2018-09-13T06:24:02.891Z,21.64
2018-09-13T06:25:02.860Z,21.66
2018-09-13T06:26:02.756Z,21.66
2018-09-13T06:27:02.736Z,21.64
2018-09-13T06:28:02.861Z,21.67
2018-09-13T06:29:02.594Z,21.64
2018-09-13T06:30:02.424Z,21.64
2018-09-13T06:31:02.538Z,21.68
2018-09-13T06:32:02.619Z,21.67
2018-09-13T06:33:02.912Z,21.64
2018-09-13T06:34:02.605Z,21.68
2018-09-13T06:35:02.756Z,21.67
2018-09-13T06:36:02.910Z,21.66
2018-09-13T06:37:02.545Z,21.66
2018-09-13T06:38:02.787Z,21.63
2018-09-13T06:39:02.614Z,21.64
2018-09-13T06:40:02.674Z,21.64
2018-09-13T06:41:02.665Z,21.64
2018-09-13T06:42:02.771Z,21.68
2018-09-13T06:43:02.912Z,21.64
2018-09-13T06:44:02.730Z,21.66
2018-09-13T06:45:02.679Z,21.67
2018-09-13T06:46:02.643Z,21.66
2018-09-13T06:47:02.920Z,21.64
2018-09-13T06:48:03.162Z,21.66
2018-09-13T06:49:02.816Z,21.66
2018-09-13T06:50:02.518Z,21.63
2018-09-13T06:51:02.559Z,21.64
2018-09-13T06:52:02.625Z,21.64
2018-09-13T06:53:02.640Z,21.63
2018-09-13T06:54:03.029Z,21.66
2018-09-13T06:55:02.824Z,21.63
2018-09-13T06:56:02.818Z,21.61
2018-09-13T06:57:02.877Z,21.64
2018-09-13T06:58:02.928Z,21.66
2018-09-13T06:59:02.438Z,21.66
2018-09-13T07:00:02.535Z,21.64
2018-09-13T07:01:02.711Z,21.66
2018-09-13T07:02:02.622Z,21.67
2018-09-13T07:03:02.703Z,21.63
2018-09-13T07:04:02.659Z,21.64
2018-09-13T07:05:02.667Z,21.64
2018-09-13T07:06:02.601Z,21.66
2018-09-13T07:07:02.812Z,21.63
2018-09-13T07:08:02.591Z,21.66
2018-09-13T07:09:03.374Z,21.66
2018-09-13T07:10:02.654Z,21.66
2018-09-13T07:11:02.868Z,21.63
2018-09-13T07:12:02.571Z,21.66
2018-09-13T07:13:02.456Z,21.64
2018-09-13T07:14:02.878Z,21.66
2018-09-13T07:15:02.519Z,21.66
2018-09-13T07:16:02.413Z,21.66
2018-09-13T07:17:02.475Z,21.64
2018-09-13T07:18:02.575Z,21.66
2018-09-13T07:19:02.394Z,21.66
2018-09-13T07:20:02.668Z,21.64
2018-09-13T07:21:02.626Z,21.63
2018-09-13T07:22:02.705Z,21.64
2018-09-13T07:23:02.408Z,21.67
2018-09-13T07:24:02.668Z,21.66
2018-09-13T07:25:02.598Z,21.66
2018-09-13T07:26:02.667Z,21.64
2018-09-13T07:27:02.659Z,21.64
2018-09-13T07:28:02.569Z,21.66
2018-09-13T07:29:02.778Z,21.66
2018-09-13T07:30:02.556Z,21.66
2018-09-13T07:31:03.277Z,21.64
2018-09-13T07:32:02.500Z,21.64
2018-09-13T07:33:02.538Z,21.64
2018-09-13T07:34:02.554Z,21.63
2018-09-13T07:35:02.817Z,21.63
2018-09-13T07:36:02.613Z,21.66
2018-09-13T07:37:02.709Z,21.64
2018-09-13T07:38:02.485Z,21.64
2018-09-13T07:39:02.488Z,21.63
2018-09-13T07:40:02.948Z,21.66
2018-09-13T07:41:02.880Z,21.64
2018-09-13T07:42:02.642Z,21.64
2018-09-13T07:43:02.876Z,21.64
2018-09-13T07:44:02.523Z,21.63
2018-09-13T07:45:02.685Z,21.64
2018-09-13T07:46:02.827Z,21.64
2018-09-13T07:47:02.516Z,21.6
2018-09-13T07:48:02.568Z,21.54
2018-09-13T07:49:03.392Z,21.43
2018-09-13T07:50:02.694Z,21.37
2018-09-13T07:51:02.914Z,21.37
2018-09-13T07:52:02.849Z,21.33
2018-09-13T07:53:02.656Z,21.3
2018-09-13T07:54:02.412Z,21.25
2018-09-13T07:55:02.841Z,21.18
2018-09-13T07:56:02.712Z,21.18
2018-09-13T07:57:03.450Z,21.18
2018-09-13T07:58:02.620Z,21.19
2018-09-13T07:59:02.595Z,21.23
2018-09-13T08:00:02.511Z,21.26
2018-09-13T08:01:02.799Z,21.33
2018-09-13T08:02:02.489Z,21.34
2018-09-13T08:03:02.507Z,21.39
2018-09-13T08:04:02.653Z,21.39
2018-09-13T08:05:03.374Z,21.4
2018-09-13T08:06:03.222Z,21.4
2018-09-13T08:07:02.964Z,21.4
2018-09-13T08:08:02.594Z,21.42
2018-09-13T08:09:02.501Z,21.44
2018-09-13T08:10:02.630Z,21.46
2018-09-13T08:11:02.632Z,21.47
2018-09-13T08:12:03.623Z,21.49
2018-09-13T08:13:02.779Z,21.47
2018-09-13T08:14:02.574Z,21.5
2018-09-13T08:15:03.271Z,21.51
2018-09-13T08:16:02.830Z,21.54
2018-09-13T08:17:02.666Z,21.56
2018-09-13T08:18:02.383Z,21.56
2018-09-13T08:19:02.661Z,21.57
2018-09-13T08:20:02.575Z,21.6
2018-09-13T08:21:02.990Z,21.6
2018-09-13T08:22:03.980Z,21.6
2018-09-13T08:23:03.046Z,21.61
2018-09-13T08:24:02.841Z,21.63
2018-09-13T08:25:02.415Z,21.63
2018-09-13T08:26:02.408Z,21.63
2018-09-13T08:27:03.122Z,21.64
2018-09-13T08:28:02.466Z,21.64
2018-09-13T08:29:02.776Z,21.66
2018-09-13T08:30:02.535Z,21.66
2018-09-13T08:31:02.814Z,21.61
2018-09-13T08:32:02.850Z,21.64
2018-09-13T08:33:02.815Z,21.64
2018-09-13T08:34:02.836Z,21.64
2018-09-13T08:35:03.886Z,21.67
2018-09-13T08:36:02.645Z,21.68
2018-09-13T08:37:03.277Z,21.68
2018-09-13T08:38:02.426Z,21.67
2018-09-13T08:39:02.398Z,21.68
2018-09-13T08:40:02.987Z,21.7
2018-09-13T08:41:02.536Z,21.68
2018-09-13T08:42:02.687Z,21.71
2018-09-13T08:43:03.108Z,21.71
2018-09-13T08:44:02.652Z,21.73
2018-09-13T08:45:02.617Z,21.73
2018-09-13T08:46:02.765Z,21.74
2018-09-13T08:47:02.668Z,21.74
2018-09-13T08:48:02.520Z,21.71
2018-09-13T08:49:02.447Z,21.71
2018-09-13T08:50:02.275Z,21.73
2018-09-13T08:51:02.498Z,21.74
2018-09-13T08:52:03.301Z,21.76
2018-09-13T08:53:02.464Z,21.76
2018-09-13T08:54:03.071Z,21.76
2018-09-13T08:55:03.053Z,21.76
2018-09-13T08:56:02.858Z,21.78
2018-09-13T08:57:02.723Z,21.81
2018-09-13T08:58:02.668Z,21.78
2018-09-13T08:59:02.569Z,21.78
2018-09-13T09:00:02.484Z,21.78
2018-09-13T09:01:02.922Z,21.76
2018-09-13T09:02:02.831Z,21.78
2018-09-13T09:03:02.872Z,21.78
2018-09-13T09:04:02.612Z,21.78
2018-09-13T09:05:02.539Z,21.81
2018-09-13T09:06:02.922Z,21.78
2018-09-13T09:07:02.723Z,21.76
2018-09-13T09:08:02.536Z,21.78
2018-09-13T09:09:02.637Z,21.8
2018-09-13T09:10:02.893Z,21.77
2018-09-13T09:11:02.945Z,21.78
2018-09-13T09:12:03.390Z,21.77
2018-09-13T09:13:02.462Z,21.8
2018-09-13T09:14:03.036Z,21.77
2018-09-13T09:15:02.622Z,21.77
2018-09-13T09:16:02.831Z,21.78
2018-09-13T09:17:02.746Z,21.77
2018-09-13T09:18:02.795Z,21.76
2018-09-13T09:19:03.195Z,21.77
2018-09-13T09:20:02.858Z,21.76
2018-09-13T09:21:02.529Z,21.77
2018-09-13T09:22:02.444Z,21.76
2018-09-13T09:23:02.721Z,21.74
2018-09-13T09:24:03.119Z,21.76
2018-09-13T09:25:02.815Z,21.74
2018-09-13T09:26:02.936Z,21.74
2018-09-13T09:27:02.645Z,21.74
2018-09-13T09:28:02.595Z,21.74
2018-09-13T09:29:03.254Z,21.74
2018-09-13T09:30:02.564Z,21.73
2018-09-13T09:31:02.738Z,21.73
2018-09-13T09:32:02.415Z,21.73
2018-09-13T09:33:02.772Z,21.74
2018-09-13T09:34:03.301Z,21.71
2018-09-13T09:35:03.054Z,21.74
2018-09-13T09:36:02.736Z,21.71
2018-09-13T09:37:02.514Z,21.74
2018-09-13T09:38:02.737Z,21.7
2018-09-13T09:39:02.656Z,21.71
2018-09-13T09:40:02.564Z,21.71
2018-09-13T09:41:02.505Z,21.71
2018-09-13T09:42:02.422Z,21.71
2018-09-13T09:43:02.588Z,21.73
2018-09-13T09:44:03.133Z,21.73
2018-09-13T09:45:03.784Z,21.71
2018-09-13T09:46:02.848Z,21.74
2018-09-13T09:47:02.861Z,21.7
2018-09-13T09:48:03.179Z,21.71
2018-09-13T09:49:02.699Z,21.73
2018-09-13T09:50:02.698Z,21.71
2018-09-13T09:51:02.568Z,21.67
2018-09-13T09:52:03.277Z,21.68
2018-09-13T09:53:02.783Z,21.7
2018-09-13T09:54:02.791Z,21.68
2018-09-13T09:55:02.583Z,21.68
2018-09-13T09:56:03.173Z,21.68
2018-09-13T09:57:02.491Z,21.68
2018-09-13T09:58:04.081Z,21.68
2018-09-13T09:59:02.559Z,21.7
2018-09-13T10:00:02.464Z,21.7
2018-09-13T10:01:02.869Z,21.7
2018-09-13T10:02:02.536Z,21.68
2018-09-13T10:03:03.221Z,21.68
2018-09-13T10:04:02.504Z,21.7
2018-09-13T10:05:02.546Z,21.67
2018-09-13T10:06:02.381Z,21.7
2018-09-13T10:07:02.434Z,21.68
2018-09-13T10:08:02.481Z,21.68
2018-09-13T10:09:03.099Z,21.67
2018-09-13T10:10:02.664Z,21.68
2018-09-13T10:11:02.432Z,21.68
2018-09-13T10:12:02.964Z,21.7
2018-09-13T10:13:02.393Z,21.71
2018-09-13T10:14:02.592Z,21.68
2018-09-13T10:15:02.813Z,21.68
2018-09-13T10:16:02.879Z,21.71
2018-09-13T10:17:02.610Z,21.73
2018-09-13T10:18:02.586Z,21.7
2018-09-13T10:19:02.473Z,21.68
2018-09-13T10:20:02.882Z,21.73
2018-09-13T10:21:02.525Z,21.7
2018-09-13T10:22:02.529Z,21.68
2018-09-13T10:23:03.762Z,21.68
2018-09-13T10:24:02.706Z,21.68
2018-09-13T10:25:02.706Z,21.68
2018-09-13T10:26:02.339Z,21.7
2018-09-13T10:27:03.612Z,21.68
2018-09-13T10:28:02.757Z,21.68
2018-09-13T10:29:02.539Z,21.7
2018-09-13T10:30:02.377Z,21.68
2018-09-13T10:31:02.791Z,21.7
2018-09-13T10:32:02.896Z,21.67
2018-09-13T10:33:03.191Z,21.7
2018-09-13T10:34:02.679Z,21.68
2018-09-13T10:35:02.629Z,21.67
2018-09-13T10:36:02.564Z,21.68
2018-09-13T10:37:02.775Z,21.68
2018-09-13T10:38:02.526Z,21.7
2018-09-13T10:39:02.614Z,21.68
2018-09-13T10:40:02.835Z,21.68
2018-09-13T10:41:02.607Z,21.68
2018-09-13T10:42:02.948Z,21.7
2018-09-13T10:43:02.991Z,21.67
2018-09-13T10:44:02.828Z,21.7
2018-09-13T10:45:02.544Z,21.71
2018-09-13T10:46:02.933Z,21.67
2018-09-13T10:47:02.842Z,21.7
2018-09-13T10:48:03.394Z,21.71
2018-09-13T10:49:02.892Z,21.68
2018-09-13T10:50:02.572Z,21.68
2018-09-13T10:51:03.052Z,21.68
2018-09-13T10:52:02.485Z,21.68
2018-09-13T10:53:02.672Z,21.68
2018-09-13T10:54:02.678Z,21.7
2018-09-13T10:55:02.700Z,21.68
2018-09-13T10:56:02.918Z,21.7
2018-09-13T10:57:02.651Z,21.7
2018-09-13T10:58:02.712Z,21.67
2018-09-13T10:59:03.115Z,21.68
2018-09-13T11:00:02.499Z,21.67
2018-09-13T11:01:02.675Z,21.67
2018-09-13T11:02:02.642Z,21.68
2018-09-13T11:03:02.550Z,21.68
2018-09-13T11:04:03.347Z,21.68
2018-09-13T11:05:02.546Z,21.67
2018-09-13T11:06:02.499Z,21.7
2018-09-13T11:07:02.542Z,21.68
2018-09-13T11:08:02.419Z,21.66
2018-09-13T11:09:02.526Z,21.7
2018-09-13T11:10:02.430Z,21.68
2018-09-13T11:11:04.801Z,21.67
2018-09-13T11:12:02.862Z,21.68
2018-09-13T11:13:02.803Z,21.7
2018-09-13T11:14:03.049Z,21.7
2018-09-13T11:15:02.700Z,21.68
2018-09-13T11:16:02.492Z,21.68
2018-09-13T11:17:02.399Z,21.66
2018-09-13T11:18:02.483Z,21.67
2018-09-13T11:19:02.508Z,21.66
2018-09-13T11:20:02.757Z,21.68
2018-09-13T11:21:02.583Z,21.67
2018-09-13T11:22:03.009Z,21.68
2018-09-13T11:23:02.493Z,21.67
2018-09-13T11:24:02.691Z,21.68
2018-09-13T11:25:02.463Z,21.68
2018-09-13T11:26:02.456Z,21.68
2018-09-13T11:27:02.548Z,21.7
2018-09-13T11:28:02.484Z,21.67
2018-09-13T11:29:02.533Z,21.7
2018-09-13T11:30:02.495Z,21.7
2018-09-13T11:31:02.541Z,21.68
2018-09-13T11:32:02.449Z,21.67
2018-09-13T11:33:02.375Z,21.67
2018-09-13T11:34:02.522Z,21.66
2018-09-13T11:35:02.587Z,21.68
2018-09-13T11:36:02.656Z,21.64
2018-09-13T11:37:02.581Z,21.68
2018-09-13T11:38:02.566Z,21.68
2018-09-13T11:39:02.483Z,21.68
2018-09-13T11:40:03.178Z,21.71
2018-09-13T11:41:04.311Z,21.68
2018-09-13T11:42:02.496Z,21.68
2018-09-13T11:43:02.437Z,21.7
2018-09-13T11:44:02.663Z,21.7
2018-09-13T11:45:02.594Z,21.66
2018-09-13T11:46:02.528Z,21.66
2018-09-13T11:47:02.922Z,21.67
2018-09-13T11:48:02.996Z,21.67
2018-09-13T11:49:02.462Z,21.68
2018-09-13T11:50:02.559Z,21.67
2018-09-13T11:51:02.356Z,21.66
2018-09-13T11:52:02.516Z,21.66
2018-09-13T11:53:02.592Z,21.68
2018-09-13T11:54:03.152Z,21.68
2018-09-13T11:55:02.590Z,21.67
2018-09-13T11:56:02.853Z,21.67
2018-09-13T11:57:02.581Z,21.67
2018-09-13T11:58:02.800Z,21.68
2018-09-13T11:59:02.424Z,21.68
2018-09-13T12:00:02.440Z,21.68
2018-09-13T12:01:02.894Z,21.7
2018-09-13T12:02:03.341Z,21.68
2018-09-13T12:03:02.549Z,21.67
2018-09-13T12:04:02.576Z,21.68
2018-09-13T12:05:02.710Z,21.68
2018-09-13T12:06:02.687Z,21.67
2018-09-13T12:07:02.511Z,21.68
2018-09-13T12:08:02.593Z,21.68
2018-09-13T12:09:02.809Z,21.67
2018-09-13T12:10:02.569Z,21.67
2018-09-13T12:11:02.777Z,21.68
2018-09-13T12:12:02.620Z,21.66
2018-09-13T12:13:02.655Z,21.66
2018-09-13T12:14:02.614Z,21.67
2018-09-13T12:15:03.832Z,21.67
2018-09-13T12:16:02.508Z,21.66
2018-09-13T12:17:02.560Z,21.67
2018-09-13T12:18:03.980Z,21.7
2018-09-13T12:19:02.515Z,21.67
2018-09-13T12:20:02.811Z,21.68
2018-09-13T12:21:03.189Z,21.7
2018-09-13T12:22:02.469Z,21.7
2018-09-13T12:23:02.592Z,21.66
2018-09-13T12:24:02.494Z,21.68
2018-09-13T12:25:02.551Z,21.68
2018-09-13T12:26:02.671Z,21.66
2018-09-13T12:27:02.720Z,21.68
2018-09-13T12:28:02.384Z,21.67
2018-09-13T12:29:02.589Z,21.68
2018-09-13T12:30:02.642Z,21.67
2018-09-13T12:31:02.561Z,21.67
2018-09-13T12:32:02.337Z,21.67
2018-09-13T12:33:03.028Z,21.67
2018-09-13T12:34:02.800Z,21.67
2018-09-13T12:35:02.577Z,21.68
2018-09-13T12:36:02.339Z,21.67
2018-09-13T12:37:02.667Z,21.67
2018-09-13T12:38:02.432Z,21.7
2018-09-13T12:39:02.417Z,21.67
2018-09-13T12:40:02.622Z,21.64
2018-09-13T12:41:02.546Z,21.67
2018-09-13T12:42:02.466Z,21.68
2018-09-13T12:43:02.869Z,21.67
2018-09-13T12:44:02.436Z,21.68
2018-09-13T12:45:02.927Z,21.66
2018-09-13T12:46:02.882Z,21.68
2018-09-13T12:47:03.776Z,21.66
2018-09-13T12:48:02.492Z,21.66
2018-09-13T12:49:02.873Z,21.66
2018-09-13T12:50:03.351Z,21.68
2018-09-13T12:51:02.876Z,21.67
2018-09-13T12:52:02.588Z,21.67
2018-09-13T12:53:02.589Z,21.67
2018-09-13T12:54:02.431Z,21.68
2018-09-13T12:55:02.503Z,21.68
2018-09-13T12:56:02.386Z,21.67